Lena, Illinois
Current Conditions -  °F | °C
As of 4:55 PM on Sunday 21 Dec 2014 (Local Time) from KFEP Reporting Station
Overcast Overcast  
Wind Chill: -4°   Ceiling: 2800
Heat Index:   Visibility: 10mi
Dew Point: -1°   Wind: 16mph
Humidity: 85%   Direction: 150°SSE
Pressure: 30.01"   Gusts: 21mph
Location:  42.38°N, 89.82°W
Report Text: KFEP 212255Z AUTO 15014G18KT 10SM OVC028 02/00 A3001 RMK AO2 T00181005
Loading
Personal Weather Stations






























Interactive Weather Map New forecast layout! Learn more

10-Day Weather Forecast

Advertisements
Track Severe Weather on mobile